Grindstone Creek Rancheria, California
Current Conditions -  °F | °C
As of 6:35 PM on Friday 28 Nov 2014 (Local Time) from KCIC Reporting Station
Overcast Overcast  
Wind Chill: 52°   Ceiling: 3300
Heat Index: 52°   Visibility: 2.5mi
Dew Point: 52°   Wind: 5mph
Humidity: 100%   Direction: 110°ESE
Pressure: 29.85"   Gusts: NA
Location:  39.5562°N, 122.604°W
Report Text: KCIC 290235Z AUTO 11004KT 2 1/2SM BKN033 OVC046 11/11 A2985 RMK AO1 P0002
Loading
Personal Weather Stations






























Interactive Weather Map New forecast layout! Learn more

10-Day Weather Forecast

Advertisements
Track Severe Weather on mobile